METAR stanice u blizini

 

LYBE - Beograd / Surčin, Srbija
Ažurirano: 18/10/2018 10:30
Vedro
Vedro
 Pravac vetra JI
Vetar: JI 17 km/h
Temperatura: 20°C
Tačka rose: 9°C
Vlažnost: 49%
Pritisak: 1018 hPa
Pregled: Vedro
Vidljivost: greater than 10 km
2018/10/18 08:30 LYBE 180830Z 14009KT CAVOK 20/09 Q1018 NOSIG
LYBT - Beograd / Batajnica, Srbija
Ažurirano: 18/10/2018 10:30
Vedro
Vedro
 Pravac vetra I
Vetar: I 11 km/h
Temperatura: 20°C
Tačka rose: 9°C
Vlažnost: 49%
Pritisak: 1018 hPa
Pregled: Vedro
Vidljivost: greater than 10 km
2018/10/18 08:30 LYBT 180830Z 10006KT 040V130 CAVOK 20/09 Q1018 NOSIG
LYVR - Vršac, Srbija
Ažurirano: 18/10/2018 10:30
Vedro
Vedro
 Pravac vetra varies
Vetar: varies 2 km/h
Temperatura: 21°C
Tačka rose: 10°C
Vlažnost: 50%
Pritisak: 1019 hPa
Pregled: Vedro
Vidljivost: greater than 10 km
2018/10/18 08:30 LYVR 180830Z VRB01KT CAVOK 21/10 Q1019 NOSIG
 
LYKV - Lađevci, Srbija
Ažurirano: 18/10/2018 10:30
Vedro
Vedro
 Pravac vetra calm
Vetar: Tišina
Temperatura: 13°C
Tačka rose: 8°C
Vlažnost: 72%
Pritisak: 1019 hPa
Pregled: Vedro
Vidljivost: greater than 10 km
2018/10/18 08:30 LYKV 180830Z 00000KT CAVOK 13/08 Q1019 NOSIG
LYNI - Niš, Srbija
Ažurirano: 18/10/2018 10:30
Vedro
Vedro
 Pravac vetra varies
Vetar: varies 6 km/h
Temperatura: 16°C
Tačka rose: 6°C
Vlažnost: 52%
Pritisak: 1019 hPa
Pregled: Vedro
Vidljivost: greater than 10 km
2018/10/18 08:30 LYNI 180830Z VRB03KT CAVOK 16/06 Q1019 NOSIG
BKPR - Priština, Srbija
Ažurirano: 18/10/2018 10:30
Few Clouds
Few Clouds
 Pravac vetra calm
Vetar: Tišina
Temperatura: 13°C
Tačka rose: 5°C
Vlažnost: 59%
Pritisak: 1019 hPa
Oblaci: Few Clouds
Vidljivost: 10 km
Cloud details: Few Clouds 2743 m
2018/10/18 08:30 BKPR 180830Z 00000KT 9999 FEW090 13/05 Q1019 NOSIG
 
LHPP - Pecs / Pogany, Hungary
Ažurirano: 18/10/2018 10:15
Vedro
Vedro
 Pravac vetra I
Vetar: I 11 km/h
Temperatura: 15°C
Tačka rose: 6°C
Vlažnost: 55%
Pritisak: 1019 hPa
Pregled: Vedro
Vidljivost: greater than 10 km
2018/10/18 08:15 LHPP 180815Z 09006KT CAVOK 15/06 Q1019
LHUD - Szeged, Hungary
Ažurirano: 18/10/2018 10:15
Vedro
Vedro
 Pravac vetra SSI
Vetar: SSI 4 km/h
Temperatura: 14°C
Tačka rose: 5°C
Vlažnost: 55%
Pritisak: 1020 hPa
Pregled: Vedro
Vidljivost: greater than 10 km
2018/10/18 08:15 LHUD 180815Z 03002KT CAVOK 14/05 Q1020
LRTR - Timisoara, Romania
Ažurirano: 18/10/2018 10:30
Vedro
Vedro
 Pravac vetra IJI
Vetar: IJI 11 km/h
Temperatura: 20°C
Tačka rose: 8°C
Vlažnost: 46%
Pritisak: 1019 hPa
Pregled: Vedro
Vidljivost: greater than 10 km
2018/10/18 08:30 LRTR 180830Z 11006KT CAVOK 20/08 Q1019 NOSIG
 
LRCV - Craiova, Romania
Ažurirano: 18/10/2018 10:30
Vedro
Vedro
 Pravac vetra I
Vetar: I 17 km/h
Temperatura: 18°C
Tačka rose: 9°C
Vlažnost: 56%
Pritisak: 1019 hPa
Pregled: Vedro
Vidljivost: greater than 10 km
2018/10/18 08:30 LRCV 180830Z 08009KT CAVOK 18/09 Q1019
LBSF - Sofia, Bulgaria
Ažurirano: 18/10/2018 10:30
Vedro
Vedro
 Pravac vetra varies
Vetar: varies 4 km/h
Temperatura: 17°C
Tačka rose: 8°C
Vlažnost: 56%
Pritisak: 1019 hPa
Pregled: Vedro
Vidljivost: greater than 10 km
2018/10/18 08:30 LBSF 180830Z VRB02KT CAVOK 17/08 Q1019 NOSIG
LWSK - Skoplje, Makedonija
Ažurirano: 18/10/2018 10:30
Vedro
Vedro
 Pravac vetra JZ
Vetar: JZ 2 km/h
Temperatura: 16°C
Tačka rose: 7°C
Vlažnost: 55%
Pritisak: 1019 hPa
Pregled: Vedro
Vidljivost: greater than 10 km
2018/10/18 08:30 LWSK 180830Z 23001KT CAVOK 16/07 Q1019 NOSIG
 
LYPG - Podgorica, Crna Gora
Ažurirano: 18/10/2018 10:30
Vedro
Vedro
 Pravac vetra varies
Vetar: varies 4 km/h
Temperatura: 22°C
Tačka rose: 7°C
Vlažnost: 38%
Pritisak: 1016 hPa
Pregled: Vedro
Vidljivost: greater than 10 km
2018/10/18 08:30 LYPG 180830Z VRB02KT CAVOK 22/07 Q1016 NOSIG
LQSA - Sarajevo, Bosna i Hercegovina
Ažurirano: 18/10/2018 10:30
Vedro
Vedro
 Pravac vetra varies
Vetar: varies 2 km/h
Temperatura: 12°C
Tačka rose: 8°C
Vlažnost: 77%
Pritisak: 1019 hPa
Pregled: Vedro
Vidljivost: greater than 10 km
2018/10/18 08:30 LQSA 180830Z VRB01KT CAVOK 12/08 Q1019 NOSIG
LDOS - Osijek, Hrvatksa
Ažurirano: 18/10/2018 10:30
Partly Cloudy
Partly Cloudy
 Pravac vetra JI
Vetar: JI 6 km/h
Temperatura: 16°C
Tačka rose: 8°C
Vlažnost: 59%
Pritisak: 1018 hPa
Oblaci: Partly Cloudy
Vidljivost: 7 km
2018/10/18 08:30 LDOS 180830Z 13003KT 090V170 7000 NSC 16/08 Q1018